Time;durP1;ratioP1;P1;durP2;ratioP2;P2;SDS_P1;SDS_P2;PMS_P1;PMS_P2;Temp;Humidity;BMP_temperature;BMP_pressure;BME280_temperature;BME280_humidity;BME280_pressure;Samples;Min_cycle;Max_cycle;Signal;HPM_P1;HPM_P2
2022/10/15 00:01:22;;;;;;;;;;;12.70;99.90;;;;;;5097188;28;19976;-69
2022/10/15 00:03:48;;;;;;;;;;;12.70;99.90;;;;;;5134655;27;19928;-75
2022/10/15 00:06:17;;;;;;;;;;;12.70;99.90;;;;;;5097659;28;19973;-74
2022/10/15 00:08:46;;;;;;;;;;;12.70;99.90;;;;;;5099274;28;19924;-72
2022/10/15 00:11:14;;;;;;;;;;;12.80;99.90;;;;;;5090655;28;20346;-73
2022/10/15 00:13:39;;;;;;;;;;;12.80;99.90;;;;;;5104906;28;20014;-75
2022/10/15 00:16:09;;;;;;;;;;;12.70;99.90;;;;;;5124000;28;19923;-72
2022/10/15 00:18:35;;;;;;;;;;;12.80;99.90;;;;;;5120032;28;19920;-71
2022/10/15 00:21:03;;;;;;;;;;;12.70;99.90;;;;;;5118980;28;19923;-74
2022/10/15 00:23:29;;;;;;;;;;;12.70;99.90;;;;;;5120795;27;20328;-70
2022/10/15 00:26:02;;;;;;;;;;;12.70;99.90;;;;;;5123356;28;20018;-73
2022/10/15 00:28:28;;;;;;;;;;;12.70;99.90;;;;;;5115923;28;19961;-68
2022/10/15 00:30:58;;;;;;;;;;;12.70;99.90;;;;;;5118087;28;20376;-69
2022/10/15 00:33:24;;;;;;;;;;;12.80;99.90;;;;;;5117596;28;19924;-74
2022/10/15 00:35:56;;;;;;;;;;;12.80;99.90;;;;;;5113080;28;19992;-81
2022/10/15 00:38:22;;;;;;;;;;;12.80;99.90;;;;;;5115795;28;20006;-74
2022/10/15 00:40:47;;;;;;;;;;;12.80;99.90;;;;;;5120910;28;20020;-72
2022/10/15 00:43:13;;;;;;;;;;;12.70;99.90;;;;;;5121094;28;20352;-73
2022/10/15 00:45:38;;;;;;;;;;;12.70;99.90;;;;;;5120877;28;19930;-74
2022/10/15 00:48:06;;;;;;;;;;;12.80;99.90;;;;;;5120258;28;19931;-74
2022/10/15 00:50:32;;;;;;;;;;;12.80;99.90;;;;;;5121846;27;19977;-73
2022/10/15 00:53:06;;;;;;;;;;;12.80;99.90;;;;;;5120391;28;20505;-74
2022/10/15 00:55:32;;;;;;;;;;;12.80;99.90;;;;;;5122772;27;19924;-73
2022/10/15 00:58:00;;;;;;;;;;;12.80;99.90;;;;;;5124859;27;19930;-74
2022/10/15 01:00:26;;;;;;;;;;;12.70;99.90;;;;;;5127246;27;19968;-74
2022/10/15 01:02:51;;;;;;;;;;;12.70;99.90;;;;;;5125133;27;19919;-74
2022/10/15 01:05:17;;;;;;;;;;;12.80;99.90;;;;;;5125905;27;19927;-74
2022/10/15 01:07:43;;;;;;;;;;;12.80;99.90;;;;;;5123175;27;19924;-74
2022/10/15 01:10:09;;;;;;;;;;;12.80;99.90;;;;;;5125840;27;20355;-74
2022/10/15 01:12:53;;;;;;;;;;;12.80;99.90;;;;;;5124425;27;20453;-74
2022/10/15 01:15:28;;;;;;;;;;;12.80;99.90;;;;;;5119532;27;19969;-74
2022/10/15 01:18:08;;;;;;;;;;;12.80;99.90;;;;;;5126780;27;19930;-74
2022/10/15 01:20:43;;;;;;;;;;;12.80;99.90;;;;;;5125767;27;19923;-74
2022/10/15 01:23:21;;;;;;;;;;;12.80;99.90;;;;;;5128876;27;19938;-73
2022/10/15 01:26:06;;;;;;;;;;;12.80;99.90;;;;;;5118705;27;20023;-74
2022/10/15 01:28:45;;;;;;;;;;;12.90;99.90;;;;;;5123742;27;19924;-74
2022/10/15 01:31:24;;;;;;;;;;;12.80;99.90;;;;;;5118982;27;19931;-74
2022/10/15 01:33:52;;;;;;;;;;;12.70;99.90;;;;;;5124444;27;19923;-74
2022/10/15 01:36:26;;;;;;;;;;;12.70;99.90;;;;;;5125495;27;19924;-74
2022/10/15 01:38:56;;;;;;;;;;;12.70;99.90;;;;;;5123601;27;20398;-74
2022/10/15 01:41:42;;;;;;;;;;;12.70;99.90;;;;;;5125667;27;19931;-73
2022/10/15 01:44:18;;;;;;;;;;;12.80;99.90;;;;;;5130618;27;19966;-73
2022/10/15 01:46:53;;;;;;;;;;;12.80;99.90;;;;;;5119726;27;20371;-73
2022/10/15 01:49:23;;;;;;;;;;;12.70;99.90;;;;;;5124641;27;19972;-73
2022/10/15 01:51:49;;;;;;;;;;;12.70;99.90;;;;;;5124770;27;19928;-73
2022/10/15 01:54:19;;;;;;;;;;;12.70;99.90;;;;;;5124713;27;20022;-73
2022/10/15 01:56:48;;;;;;;;;;;12.70;99.90;;;;;;5124089;27;19924;-73
2022/10/15 01:59:15;;;;;;;;;;;12.60;99.90;;;;;;5125705;27;20393;-73
2022/10/15 02:01:42;;;;;;;;;;;12.60;99.90;;;;;;5121015;27;19930;-73
2022/10/15 02:04:21;;;;;;;;;;;12.50;99.90;;;;;;5127191;27;20419;-74
2022/10/15 02:06:49;;;;;;;;;;;12.60;99.90;;;;;;5121462;27;19931;-73
2022/10/15 02:09:53;;;;;;;;;;;12.60;99.90;;;;;;5125509;27;19923;-73
2022/10/15 02:12:40;;;;;;;;;;;12.60;99.90;;;;;;5052319;28;20070;-74
2022/10/15 02:15:17;;;;;;;;;;;12.60;99.90;;;;;;5011532;28;19961;-73
2022/10/15 02:17:43;;;;;;;;;;;12.70;99.90;;;;;;5096908;27;19924;-74
2022/10/15 02:20:14;;;;;;;;;;;12.70;99.90;;;;;;5126304;27;19923;-73
2022/10/15 02:22:46;;;;;;;;;;;12.70;99.90;;;;;;5121308;27;19930;-73
2022/10/15 02:25:15;;;;;;;;;;;12.70;99.90;;;;;;5124441;27;19926;-73
2022/10/15 02:27:41;;;;;;;;;;;12.70;99.90;;;;;;5122029;27;19924;-74
2022/10/15 02:30:07;;;;;;;;;;;12.70;99.90;;;;;;5125428;27;20383;-74
2022/10/15 02:32:34;;;;;;;;;;;12.70;99.90;;;;;;5124434;27;19930;-74
2022/10/15 02:35:00;;;;;;;;;;;12.60;99.90;;;;;;5121731;27;20340;-74
2022/10/15 02:37:27;;;;;;;;;;;12.70;99.90;;;;;;5123403;27;19925;-74
2022/10/15 02:39:53;;;;;;;;;;;12.60;99.90;;;;;;5122167;27;19923;-74
2022/10/15 02:42:21;;;;;;;;;;;12.60;99.90;;;;;;5125457;27;19932;-74
2022/10/15 02:44:49;;;;;;;;;;;12.60;99.90;;;;;;5126003;27;19923;-74
2022/10/15 02:47:15;;;;;;;;;;;12.60;99.90;;;;;;5123108;27;19968;-74
2022/10/15 02:49:40;;;;;;;;;;;12.70;99.90;;;;;;5123513;27;19920;-74
2022/10/15 02:52:06;;;;;;;;;;;12.70;99.90;;;;;;5157849;27;19930;-74
2022/10/15 02:54:31;;;;;;;;;;;12.70;99.90;;;;;;5120621;27;19976;-74
2022/10/15 02:56:57;;;;;;;;;;;12.70;99.90;;;;;;5124219;27;19991;-74
2022/10/15 02:59:23;;;;;;;;;;;12.70;99.90;;;;;;5124547;27;19924;-74
2022/10/15 03:01:49;;;;;;;;;;;12.90;99.90;;;;;;5125254;27;19935;-74
2022/10/15 03:04:14;;;;;;;;;;;12.70;99.90;;;;;;5121622;27;19923;-74
2022/10/15 03:06:40;;;;;;;;;;;12.70;99.90;;;;;;5121866;27;20306;-74
2022/10/15 03:09:05;;;;;;;;;;;12.70;99.90;;;;;;5123424;27;20283;-74
2022/10/15 03:11:31;;;;;;;;;;;12.70;99.90;;;;;;5121066;27;19924;-74
2022/10/15 03:13:59;;;;;;;;;;;12.70;99.90;;;;;;5124592;27;19931;-74
2022/10/15 03:16:25;;;;;;;;;;;13.60;99.90;;;;;;5117638;27;20401;-74
2022/10/15 03:18:50;;;;;;;;;;;12.70;99.90;;;;;;5123666;27;19923;-74
2022/10/15 03:21:19;;;;;;;;;;;12.70;99.90;;;;;;5121485;27;19931;-74
2022/10/15 03:23:44;;;;;;;;;;;12.70;99.90;;;;;;5123378;27;19923;-74
2022/10/15 03:26:10;;;;;;;;;;;12.70;99.90;;;;;;5121447;27;20018;-75
2022/10/15 03:28:35;;;;;;;;;;;12.70;99.90;;;;;;5120584;27;19983;-74
2022/10/15 03:31:01;;;;;;;;;;;12.70;99.90;;;;;;5123593;27;19928;-74
2022/10/15 03:33:27;;;;;;;;;;;12.80;99.90;;;;;;5119460;27;19931;-74
2022/10/15 03:35:53;;;;;;;;;;;12.80;99.90;;;;;;5124271;27;19930;-74
2022/10/15 03:38:18;;;;;;;;;;;12.80;99.90;;;;;;5119748;27;20010;-73
2022/10/15 03:40:44;;;;;;;;;;;12.70;99.90;;;;;;5121825;27;19984;-73
2022/10/15 03:43:10;;;;;;;;;;;12.70;99.90;;;;;;5125178;27;20035;-74
2022/10/15 03:45:35;;;;;;;;;;;12.70;99.90;;;;;;5121611;27;19927;-73
2022/10/15 03:48:00;;;;;;;;;;;12.70;99.90;;;;;;5121746;27;19928;-74
2022/10/15 03:50:26;;;;;;;;;;;12.60;99.90;;;;;;5124038;27;19923;-74
2022/10/15 03:52:52;;;;;;;;;;;12.60;99.90;;;;;;5122512;27;20018;-74
2022/10/15 03:55:17;;;;;;;;;;;12.60;99.90;;;;;;5120521;27;19924;-74
2022/10/15 03:57:43;;;;;;;;;;;12.70;99.90;;;;;;5124777;27;19963;-75
2022/10/15 04:00:08;;;;;;;;;;;13.10;99.90;;;;;;5121527;27;19928;-74
2022/10/15 04:02:34;;;;;;;;;;;12.70;99.90;;;;;;5121433;27;19966;-75
2022/10/15 04:05:00;;;;;;;;;;;12.70;99.90;;;;;;5122204;27;20022;-74
2022/10/15 04:07:25;;;;;;;;;;;12.80;99.90;;;;;;5124423;27;20616;-74
2022/10/15 04:09:51;;;;;;;;;;;12.80;99.90;;;;;;5124613;27;20021;-74
2022/10/15 04:12:17;;;;;;;;;;;12.80;99.90;;;;;;5120936;27;19926;-75
2022/10/15 04:14:42;;;;;;;;;;;12.80;99.90;;;;;;5122508;27;19938;-74
2022/10/15 04:17:11;;;;;;;;;;;12.80;99.90;;;;;;5120103;28;20000;-74
2022/10/15 04:19:36;;;;;;;;;;;12.70;99.90;;;;;;5123457;28;19931;-74
2022/10/15 04:22:02;;;;;;;;;;;12.70;99.90;;;;;;5120437;28;19924;-74
2022/10/15 04:24:27;;;;;;;;;;;12.70;99.90;;;;;;5122203;28;19927;-74
2022/10/15 04:26:53;;;;;;;;;;;12.70;99.90;;;;;;5122173;28;19930;-74
2022/10/15 04:29:18;;;;;;;;;;;12.60;99.90;;;;;;5120454;27;20291;-74
2022/10/15 04:31:44;;;;;;;;;;;12.70;99.90;;;;;;5128927;27;19976;-74
2022/10/15 04:34:09;;;;;;;;;;;12.70;99.90;;;;;;5123731;27;20367;-74
2022/10/15 04:36:35;;;;;;;;;;;12.70;99.90;;;;;;5125658;27;19930;-74
2022/10/15 04:39:01;;;;;;;;;;;12.70;99.90;;;;;;5124835;27;19920;-74
2022/10/15 04:41:27;;;;;;;;;;;12.70;99.90;;;;;;5126418;27;19923;-75
2022/10/15 04:43:52;;;;;;;;;;;12.60;99.90;;;;;;5125237;27;19919;-74
2022/10/15 04:46:21;;;;;;;;;;;12.60;99.90;;;;;;5124958;27;20107;-74
2022/10/15 04:48:46;;;;;;;;;;;12.60;99.90;;;;;;5127874;27;19992;-75
2022/10/15 04:51:16;;;;;;;;;;;12.50;99.90;;;;;;5124008;27;20260;-75
2022/10/15 04:53:42;;;;;;;;;;;12.60;99.90;;;;;;5125204;27;19963;-74
2022/10/15 04:56:14;;;;;;;;;;;12.50;99.90;;;;;;5128663;27;20342;-75
2022/10/15 04:58:40;;;;;;;;;;;12.50;99.90;;;;;;5119561;27;19924;-74
2022/10/15 05:01:07;;;;;;;;;;;12.40;99.90;;;;;;5119344;27;19923;-75
2022/10/15 05:03:33;;;;;;;;;;;12.40;99.90;;;;;;5125664;27;20379;-74
2022/10/15 05:06:00;;;;;;;;;;;12.40;99.90;;;;;;5124198;27;19934;-74
2022/10/15 05:08:26;;;;;;;;;;;12.40;99.90;;;;;;5127858;27;19924;-75
2022/10/15 05:10:51;;;;;;;;;;;12.40;99.90;;;;;;5125735;27;19928;-74
2022/10/15 05:13:17;;;;;;;;;;;12.50;99.90;;;;;;5124743;27;19930;-74
2022/10/15 05:15:42;;;;;;;;;;;12.40;99.90;;;;;;5125413;27;19935;-75
2022/10/15 05:18:08;;;;;;;;;;;12.40;99.90;;;;;;5126927;27;19935;-74
2022/10/15 05:20:33;;;;;;;;;;;12.50;99.90;;;;;;5122878;27;19993;-75
2022/10/15 05:23:03;;;;;;;;;;;12.50;99.90;;;;;;5122857;27;19923;-75
2022/10/15 05:25:28;;;;;;;;;;;12.60;99.90;;;;;;5123439;27;20385;-74
2022/10/15 05:27:54;;;;;;;;;;;12.50;99.90;;;;;;5126668;27;19971;-75
2022/10/15 05:30:19;;;;;;;;;;;12.50;99.90;;;;;;5125321;27;19930;-75
2022/10/15 05:32:45;;;;;;;;;;;12.60;99.90;;;;;;5122347;27;19929;-75
2022/10/15 05:35:10;;;;;;;;;;;12.60;99.90;;;;;;5123594;27;20026;-75
2022/10/15 05:37:36;;;;;;;;;;;12.50;99.90;;;;;;5126928;27;19993;-75
2022/10/15 05:40:02;;;;;;;;;;;12.50;99.90;;;;;;5122984;27;19928;-75
2022/10/15 05:42:27;;;;;;;;;;;12.50;99.90;;;;;;5125157;27;20317;-76
2022/10/15 05:44:52;;;;;;;;;;;12.50;99.90;;;;;;5123222;27;19986;-75
2022/10/15 05:47:27;;;;;;;;;;;12.50;99.90;;;;;;5123619;27;19928;-75
2022/10/15 05:49:56;;;;;;;;;;;12.50;99.90;;;;;;5122855;27;20399;-75
2022/10/15 05:52:21;;;;;;;;;;;12.50;99.90;;;;;;5120689;27;19923;-74
2022/10/15 05:54:49;;;;;;;;;;;12.50;99.90;;;;;;5126386;27;19923;-74
2022/10/15 05:57:15;;;;;;;;;;;12.50;99.90;;;;;;5125392;27;20383;-73
2022/10/15 05:59:40;;;;;;;;;;;12.50;99.90;;;;;;5123134;27;19966;-74
2022/10/15 06:02:07;;;;;;;;;;;12.40;99.90;;;;;;5123757;27;19976;-74
2022/10/15 06:04:33;;;;;;;;;;;12.40;99.90;;;;;;5124427;27;19924;-74
2022/10/15 06:06:58;;;;;;;;;;;12.50;99.90;;;;;;5122277;27;19935;-73
2022/10/15 06:09:24;;;;;;;;;;;12.40;99.90;;;;;;5124964;27;19931;-73
2022/10/15 06:11:49;;;;;;;;;;;12.30;99.90;;;;;;5124759;27;20371;-73
2022/10/15 06:14:15;;;;;;;;;;;12.40;99.90;;;;;;5122061;27;19928;-73
2022/10/15 06:16:40;;;;;;;;;;;12.30;99.90;;;;;;5122986;27;19945;-73
2022/10/15 06:19:06;;;;;;;;;;;12.30;99.90;;;;;;5119305;27;20014;-73
2022/10/15 06:21:32;;;;;;;;;;;12.30;99.90;;;;;;5120461;27;19923;-74
2022/10/15 06:23:57;;;;;;;;;;;12.40;99.90;;;;;;5121342;27;20037;-73
2022/10/15 06:26:23;;;;;;;;;;;12.50;99.90;;;;;;5124107;27;19958;-73
2022/10/15 06:28:48;;;;;;;;;;;12.50;99.90;;;;;;5116095;27;19950;-74
2022/10/15 06:31:14;;;;;;;;;;;12.50;99.90;;;;;;5115252;27;19924;-73
2022/10/15 06:33:39;;;;;;;;;;;12.50;99.90;;;;;;5112304;27;19924;-73
2022/10/15 06:36:06;;;;;;;;;;;12.50;99.90;;;;;;5114400;27;19928;-73
2022/10/15 06:38:32;;;;;;;;;;;12.60;99.90;;;;;;5123440;27;19985;-74
2022/10/15 06:40:57;;;;;;;;;;;12.70;99.90;;;;;;5125618;27;20367;-73
2022/10/15 06:43:23;;;;;;;;;;;12.70;99.90;;;;;;5120236;27;19924;-74
2022/10/15 06:45:49;;;;;;;;;;;12.60;99.90;;;;;;5126123;27;19978;-73
2022/10/15 06:48:18;;;;;;;;;;;12.70;99.90;;;;;;5122832;27;19977;-73
2022/10/15 06:50:49;;;;;;;;;;;12.70;99.90;;;;;;5120060;27;19927;-74
2022/10/15 06:53:18;;;;;;;;;;;12.70;99.90;;;;;;5116931;27;19924;-74
2022/10/15 06:55:43;;;;;;;;;;;12.60;99.90;;;;;;5125221;27;19968;-74
2022/10/15 06:58:08;;;;;;;;;;;12.60;99.90;;;;;;5120037;27;19932;-74
2022/10/15 07:00:34;;;;;;;;;;;12.70;99.90;;;;;;5124631;27;19928;-78
2022/10/15 07:03:04;;;;;;;;;;;12.70;99.90;;;;;;5124996;27;19928;-72
2022/10/15 07:05:29;;;;;;;;;;;12.80;99.90;;;;;;5124157;27;19928;-74
2022/10/15 07:07:56;;;;;;;;;;;12.80;99.90;;;;;;5121359;27;20353;-74
2022/10/15 07:10:24;;;;;;;;;;;12.90;99.90;;;;;;5124281;27;20771;-74
2022/10/15 07:12:50;;;;;;;;;;;12.90;99.90;;;;;;5120739;27;20394;-73
2022/10/15 07:15:16;;;;;;;;;;;12.90;99.90;;;;;;5125392;27;20006;-74
2022/10/15 07:17:45;;;;;;;;;;;13.00;99.90;;;;;;5120133;27;19970;-78
2022/10/15 07:20:11;;;;;;;;;;;13.00;99.90;;;;;;5125230;27;19923;-73
2022/10/15 07:22:36;;;;;;;;;;;13.00;99.90;;;;;;5122469;27;19984;-75
2022/10/15 07:25:02;;;;;;;;;;;13.00;99.90;;;;;;5122217;27;20303;-77
2022/10/15 07:27:27;;;;;;;;;;;13.00;99.90;;;;;;5123535;27;19920;-75
2022/10/15 07:29:53;;;;;;;;;;;13.10;99.90;;;;;;5120168;27;19924;-75
2022/10/15 07:32:18;;;;;;;;;;;13.20;99.90;;;;;;5121199;27;19934;-77
2022/10/15 07:34:44;;;;;;;;;;;13.20;99.90;;;;;;5124784;27;19931;-76
2022/10/15 07:37:09;;;;;;;;;;;13.20;99.90;;;;;;5121320;27;19924;-75
2022/10/15 07:39:35;;;;;;;;;;;13.20;99.90;;;;;;5121222;27;19935;-76
2022/10/15 07:42:00;;;;;;;;;;;13.30;99.90;;;;;;5119646;27;19924;-76
2022/10/15 07:44:26;;;;;;;;;;;13.40;99.90;;;;;;5114182;27;19927;-77
2022/10/15 07:46:51;;;;;;;;;;;13.30;99.90;;;;;;5122854;27;19934;-77
2022/10/15 07:49:17;;;;;;;;;;;13.40;99.90;;;;;;5113559;27;19979;-77
2022/10/15 07:51:42;;;;;;;;;;;13.40;99.90;;;;;;5116892;27;20295;-77
2022/10/15 07:54:08;;;;;;;;;;;13.40;99.90;;;;;;5123094;27;19923;-78
2022/10/15 07:56:33;;;;;;;;;;;13.40;99.90;;;;;;5120067;27;19930;-77
2022/10/15 07:58:59;;;;;;;;;;;13.40;99.90;;;;;;5122693;27;19950;-78
2022/10/15 08:01:24;;;;;;;;;;;13.40;99.90;;;;;;5122184;27;19924;-78
2022/10/15 08:03:50;;;;;;;;;;;13.40;99.90;;;;;;5121836;27;19927;-78
2022/10/15 08:06:16;;;;;;;;;;;13.30;99.90;;;;;;5120372;27;19931;-78
2022/10/15 08:08:42;;;;;;;;;;;13.30;99.90;;;;;;5122910;27;20283;-78
2022/10/15 08:11:12;;;;;;;;;;;13.30;99.90;;;;;;5121276;27;20359;-78
2022/10/15 08:13:40;;;;;;;;;;;13.30;99.90;;;;;;5114622;27;20067;-78
2022/10/15 08:16:10;;;;;;;;;;;13.40;99.90;;;;;;5115544;27;20089;-78
2022/10/15 08:18:36;;;;;;;;;;;13.40;99.90;;;;;;5116134;28;19976;-79
2022/10/15 08:21:02;;;;;;;;;;;13.40;99.90;;;;;;5120267;27;19931;-74
2022/10/15 08:23:28;;;;;;;;;;;13.30;99.90;;;;;;5118890;28;19924;-80
2022/10/15 08:25:53;;;;;;;;;;;13.50;99.90;;;;;;5123138;28;19924;-77
2022/10/15 08:28:19;;;;;;;;;;;13.40;99.90;;;;;;5115738;28;19935;-77
2022/10/15 08:30:47;;;;;;;;;;;13.50;99.90;;;;;;5118529;28;20011;-76
2022/10/15 08:33:13;;;;;;;;;;;13.70;99.90;;;;;;5122997;28;20030;-77
2022/10/15 08:35:40;;;;;;;;;;;13.60;99.90;;;;;;5122053;28;20010;-77
2022/10/15 08:38:05;;;;;;;;;;;13.80;99.90;;;;;;5121125;28;19976;-77
2022/10/15 08:40:31;;;;;;;;;;;13.80;99.90;;;;;;5122494;28;19924;-77
2022/10/15 08:42:57;;;;;;;;;;;13.80;99.90;;;;;;5119014;28;20010;-74
2022/10/15 08:45:24;;;;;;;;;;;13.80;99.90;;;;;;5123022;28;19931;-76
2022/10/15 08:48:09;;;;;;;;;;;13.80;99.90;;;;;;5126252;28;19931;-74
2022/10/15 08:50:37;;;;;;;;;;;13.80;99.90;;;;;;5118170;28;20014;-75
2022/10/15 08:53:03;;;;;;;;;;;13.70;99.90;;;;;;5124216;27;19971;-72
2022/10/15 08:55:34;;;;;;;;;;;13.70;99.90;;;;;;5123321;27;19973;-75
2022/10/15 08:58:02;;;;;;;;;;;13.70;99.90;;;;;;5110538;28;20298;-77
2022/10/15 09:00:34;;;;;;;;;;;13.80;99.90;;;;;;5110978;28;19973;-75
2022/10/15 09:03:05;;;;;;;;;;;13.80;99.90;;;;;;5115954;28;19923;-76
2022/10/15 09:05:30;;;;;;;;;;;13.80;99.90;;;;;;5105102;28;19928;-77
2022/10/15 09:08:02;;;;;;;;;;;13.80;99.90;;;;;;5112979;28;20460;-77
2022/10/15 09:10:50;;;;;;;;;;;13.70;99.90;;;;;;5114015;27;20272;-70
2022/10/15 09:13:36;;;;;;;;;;;13.70;99.90;;;;;;5113242;28;20375;-74
2022/10/15 09:16:13;;;;;;;;;;;13.80;99.90;;;;;;5119818;27;19923;-78
2022/10/15 09:18:41;;;;;;;;;;;13.80;99.90;;;;;;5115237;27;19927;-76
2022/10/15 09:21:08;;;;;;;;;;;13.70;99.90;;;;;;5116317;27;20015;-75
2022/10/15 09:23:34;;;;;;;;;;;13.90;99.90;;;;;;5116413;27;20377;-76
2022/10/15 09:26:07;;;;;;;;;;;13.90;99.90;;;;;;5117081;27;19928;-74
2022/10/15 09:28:40;;;;;;;;;;;14.00;99.90;;;;;;5114529;27;19950;-76
2022/10/15 09:31:07;;;;;;;;;;;14.00;99.90;;;;;;5114730;27;20299;-76
2022/10/15 09:33:37;;;;;;;;;;;13.90;99.90;;;;;;5118193;27;19924;-79
2022/10/15 09:36:15;;;;;;;;;;;14.00;99.90;;;;;;5114883;27;19928;-73
2022/10/15 09:38:52;;;;;;;;;;;13.90;99.90;;;;;;5111782;27;20384;-72
2022/10/15 09:41:33;;;;;;;;;;;13.90;99.90;;;;;;5121563;27;19923;-72
2022/10/15 09:44:00;;;;;;;;;;;14.00;99.90;;;;;;5125163;27;19928;-74
2022/10/15 09:46:26;;;;;;;;;;;13.90;99.90;;;;;;5125562;27;19927;-71
2022/10/15 09:49:10;;;;;;;;;;;13.90;99.90;;;;;;5126131;27;19927;-72
2022/10/15 09:51:44;;;;;;;;;;;13.90;99.90;;;;;;5122058;27;19923;-76
2022/10/15 09:54:19;;;;;;;;;;;13.90;99.90;;;;;;5124284;27;20014;-72
2022/10/15 09:56:47;;;;;;;;;;;14.00;99.90;;;;;;5124724;27;20019;-72
2022/10/15 09:59:14;;;;;;;;;;;14.00;99.90;;;;;;5123271;27;19924;-72
2022/10/15 10:01:54;;;;;;;;;;;13.90;99.90;;;;;;5126304;27;19938;-75
2022/10/15 10:04:20;;;;;;;;;;;13.90;99.90;;;;;;5118378;27;20014;-72
2022/10/15 10:06:52;;;;;;;;;;;13.90;99.90;;;;;;5126321;27;19955;-71
2022/10/15 10:09:38;;;;;;;;;;;14.00;99.90;;;;;;5118829;27;19993;-73
2022/10/15 10:12:06;;;;;;;;;;;14.10;99.90;;;;;;5124651;27;19968;-74
2022/10/15 10:14:41;;;;;;;;;;;14.20;99.90;;;;;;5116061;27;19931;-71
2022/10/15 10:17:21;;;;;;;;;;;14.30;99.90;;;;;;5120104;27;19992;-72
2022/10/15 10:20:07;;;;;;;;;;;14.40;99.90;;;;;;5117890;27;20018;-73
2022/10/15 10:22:42;;;;;;;;;;;14.60;99.90;;;;;;5101902;27;19993;-73
2022/10/15 10:25:26;;;;;;;;;;;14.60;99.90;;;;;;5115422;27;19923;-80
2022/10/15 10:28:13;;;;;;;;;;;14.60;99.90;;;;;;5116247;27;19928;-80
2022/10/15 10:30:51;;;;;;;;;;;14.50;99.90;;;;;;5114773;27;20375;-74
2022/10/15 10:33:23;;;;;;;;;;;14.50;99.90;;;;;;5118108;27;19930;-75
2022/10/15 10:35:49;;;;;;;;;;;14.50;99.90;;;;;;5113994;27;19985;-76
2022/10/15 10:38:19;;;;;;;;;;;14.40;99.90;;;;;;5120634;27;19924;-79
2022/10/15 10:40:48;;;;;;;;;;;14.50;99.90;;;;;;5121097;27;19962;-77
2022/10/15 10:43:14;;;;;;;;;;;14.60;99.90;;;;;;5127918;27;19924;-78
2022/10/15 10:45:50;;;;;;;;;;;14.60;99.90;;;;;;5118536;27;19923;-78
2022/10/15 10:48:20;;;;;;;;;;;14.60;99.90;;;;;;5113754;27;20332;-77
2022/10/15 10:50:46;;;;;;;;;;;14.40;99.90;;;;;;5125488;27;20324;-79
2022/10/15 10:53:22;;;;;;;;;;;14.50;99.90;;;;;;5121307;27;20011;-74
2022/10/15 10:55:49;;;;;;;;;;;14.50;99.90;;;;;;5119740;27;19930;-80
2022/10/15 10:58:17;;;;;;;;;;;14.60;99.90;;;;;;5126070;27;20388;-79
2022/10/15 11:00:44;;;;;;;;;;;14.80;99.90;;;;;;5122981;27;19928;-77
2022/10/15 11:03:22;;;;;;;;;;;14.90;99.90;;;;;;5123915;27;19923;-78
2022/10/15 11:05:49;;;;;;;;;;;14.90;99.90;;;;;;5121471;27;20402;-79
2022/10/15 11:08:30;;;;;;;;;;;15.10;99.90;;;;;;5115098;27;19977;-79
2022/10/15 11:11:07;;;;;;;;;;;15.60;99.90;;;;;;5116527;27;19926;-78
2022/10/15 11:13:33;;;;;;;;;;;16.90;99.90;;;;;;5121612;27;19948;-78
2022/10/15 11:16:11;;;;;;;;;;;17.30;99.90;;;;;;5110550;27;19932;-83
2022/10/15 11:18:48;;;;;;;;;;;17.30;99.90;;;;;;5109871;27;19992;-79
2022/10/15 11:21:29;;;;;;;;;;;17.10;99.90;;;;;;5116606;27;19931;-79
2022/10/15 11:24:13;;;;;;;;;;;17.40;99.90;;;;;;5115968;27;20071;-78
2022/10/15 11:26:57;;;;;;;;;;;17.60;99.90;;;;;;5116839;27;19930;-77
2022/10/15 11:29:40;;;;;;;;;;;17.60;99.90;;;;;;5111557;27;19958;-77
2022/10/15 11:32:12;;;;;;;;;;;17.40;99.90;;;;;;5117644;27;19931;-76
2022/10/15 11:34:37;;;;;;;;;;;17.30;99.90;;;;;;5123118;27;19966;-76
2022/10/15 11:37:15;;;;;;;;;;;17.10;99.90;;;;;;5122245;27;20402;-73
2022/10/15 11:39:57;;;;;;;;;;;16.80;99.90;;;;;;5117337;27;19919;-77
2022/10/15 11:42:27;;;;;;;;;;;16.80;99.90;;;;;;5121985;27;19924;-75
2022/10/15 11:44:59;;;;;;;;;;;16.60;99.90;;;;;;5121993;27;19931;-75
2022/10/15 11:47:33;;;;;;;;;;;16.50;99.90;;;;;;5122092;27;19923;-76
2022/10/15 11:50:06;;;;;;;;;;;16.40;99.90;;;;;;5115437;27;20003;-74
2022/10/15 11:52:41;;;;;;;;;;;16.20;99.90;;;;;;5115510;27;19930;-76
2022/10/15 11:55:15;;;;;;;;;;;16.20;99.90;;;;;;5112102;27;19969;-75
2022/10/15 11:57:42;;;;;;;;;;;16.40;99.90;;;;;;5114417;27;19931;-77
2022/10/15 12:00:13;;;;;;;;;;;16.40;99.90;;;;;;5120242;27;19924;-77
2022/10/15 12:02:39;;;;;;;;;;;16.60;99.90;;;;;;5122408;27;19968;-78
2022/10/15 12:05:15;;;;;;;;;;;17.00;99.90;;;;;;5112941;27;19935;-77
2022/10/15 12:07:48;;;;;;;;;;;17.00;99.90;;;;;;5111230;27;19923;-77
2022/10/15 12:10:29;;;;;;;;;;;17.00;99.90;;;;;;5115084;27;19924;-77
2022/10/15 12:12:55;;;;;;;;;;;17.00;99.90;;;;;;5113100;28;19932;-77
2022/10/15 12:15:30;;;;;;;;;;;17.00;99.90;;;;;;5116640;27;19924;-81
2022/10/15 12:18:02;;;;;;;;;;;17.00;99.90;;;;;;5116862;27;19967;-84
2022/10/15 12:20:28;;;;;;;;;;;16.80;99.90;;;;;;5117771;28;20002;-79
2022/10/15 12:22:58;;;;;;;;;;;17.00;99.90;;;;;;5120932;28;19927;-81
2022/10/15 12:25:32;;;;;;;;;;;16.90;99.90;;;;;;5115057;28;19923;-80
2022/10/15 12:28:11;;;;;;;;;;;16.90;99.90;;;;;;5119229;28;19932;-82
2022/10/15 12:30:37;;;;;;;;;;;16.80;99.90;;;;;;5110529;28;19928;-80
2022/10/15 12:33:04;;;;;;;;;;;16.70;99.90;;;;;;5116152;27;19977;-80
2022/10/15 12:35:34;;;;;;;;;;;16.70;99.90;;;;;;5110026;28;20036;-80
2022/10/15 12:38:10;;;;;;;;;;;16.70;99.90;;;;;;5112842;28;19927;-80
2022/10/15 12:40:38;;;;;;;;;;;16.60;99.90;;;;;;5114511;28;19930;-79
2022/10/15 12:43:11;;;;;;;;;;;16.50;99.90;;;;;;5112985;28;19935;-78
2022/10/15 12:45:38;;;;;;;;;;;16.30;99.90;;;;;;5111499;28;19949;-78
2022/10/15 12:48:04;;;;;;;;;;;16.40;99.90;;;;;;5110341;28;19932;-79
2022/10/15 12:50:30;;;;;;;;;;;16.40;99.90;;;;;;5113658;28;19923;-80
2022/10/15 12:53:27;;;;;;;;;;;16.20;99.90;;;;;;5119844;27;19959;-79
2022/10/15 12:56:12;;;;;;;;;;;16.20;99.90;;;;;;5147312;27;19923;-78
2022/10/15 12:58:38;;;;;;;;;;;16.20;99.90;;;;;;5123896;27;19928;-79
2022/10/15 13:01:06;;;;;;;;;;;16.10;99.90;;;;;;5126431;27;20006;-78
2022/10/15 13:03:37;;;;;;;;;;;16.10;99.90;;;;;;5126465;27;19930;-80
2022/10/15 13:06:21;;;;;;;;;;;16.00;99.90;;;;;;5124828;27;19928;-80
2022/10/15 13:08:56;;;;;;;;;;;15.90;99.90;;;;;;5119803;27;19923;-79
2022/10/15 13:11:22;;;;;;;;;;;15.90;99.90;;;;;;5123669;27;19924;-78
2022/10/15 13:13:48;;;;;;;;;;;15.80;99.90;;;;;;5122261;27;19954;-75
2022/10/15 13:16:14;;;;;;;;;;;15.60;99.90;;;;;;5122060;27;19924;-77
2022/10/15 13:18:40;;;;;;;;;;;15.60;99.90;;;;;;5157040;27;19930;-74
2022/10/15 13:21:06;;;;;;;;;;;15.60;99.90;;;;;;5127062;27;19927;-77
2022/10/15 13:23:32;;;;;;;;;;;15.60;99.90;;;;;;5124759;27;20003;-75
2022/10/15 13:26:16;;;;;;;;;;;15.60;99.90;;;;;;5124224;27;19924;-73
2022/10/15 13:28:42;;;;;;;;;;;15.50;99.90;;;;;;5118425;27;19934;-73
2022/10/15 13:31:27;;;;;;;;;;;15.50;99.90;;;;;;5126626;27;19924;-73
2022/10/15 13:33:53;;;;;;;;;;;15.30;99.90;;;;;;5120763;27;20039;-73
2022/10/15 13:36:28;;;;;;;;;;;15.30;99.90;;;;;;5126943;27;19927;-80
2022/10/15 13:38:55;;;;;;;;;;;15.30;99.90;;;;;;5123157;27;20113;-76
2022/10/15 13:41:25;;;;;;;;;;;15.20;99.90;;;;;;5125018;27;19924;-70
2022/10/15 13:43:53;;;;;;;;;;;15.00;99.90;;;;;;5122888;27;19920;-71
2022/10/15 13:46:22;;;;;;;;;;;15.10;99.90;;;;;;5124762;27;19930;-73
2022/10/15 13:48:47;;;;;;;;;;;15.10;99.90;;;;;;5124307;27;20328;-72
2022/10/15 13:51:13;;;;;;;;;;;15.00;99.90;;;;;;5126109;27;20034;-73
2022/10/15 13:53:39;;;;;;;;;;;15.00;99.90;;;;;;5121926;27;19930;-75
2022/10/15 13:56:34;;;;;;;;;;;15.20;99.90;;;;;;5126886;27;19924;-71
2022/10/15 13:59:01;;;;;;;;;;;15.20;99.90;;;;;;5104237;27;19955;-72
2022/10/15 14:01:27;;;;;;;;;;;15.30;99.90;;;;;;5125240;27;19924;-71
2022/10/15 14:03:54;;;;;;;;;;;15.30;99.90;;;;;;5122991;27;19928;-75
2022/10/15 14:06:20;;;;;;;;;;;15.20;99.90;;;;;;5123572;27;19927;-73
2022/10/15 14:08:53;;;;;;;;;;;15.70;99.90;;;;;;5124439;27;19968;-74
2022/10/15 14:11:19;;;;;;;;;;;15.10;99.90;;;;;;5125425;27;19923;-74
2022/10/15 14:13:45;;;;;;;;;;;15.20;99.90;;;;;;5122500;27;19931;-75
2022/10/15 14:16:13;;;;;;;;;;;15.00;99.90;;;;;;5123291;27;19969;-71
2022/10/15 14:18:40;;;;;;;;;;;15.00;99.90;;;;;;5116254;27;19963;-72
2022/10/15 14:21:10;;;;;;;;;;;15.00;99.90;;;;;;5123455;27;19930;-75
2022/10/15 14:23:35;;;;;;;;;;;15.00;99.90;;;;;;5107956;27;19963;-74
2022/10/15 14:26:01;;;;;;;;;;;15.10;99.90;;;;;;5124588;27;19958;-74
2022/10/15 14:28:28;;;;;;;;;;;15.20;99.90;;;;;;5123147;27;19924;-76